createdAt,value
2023-03-07T00:00:21.453Z,17.73
2023-03-07T00:02:52.208Z,17.35
2023-03-07T00:05:20.231Z,16.80
2023-03-07T00:07:48.336Z,16.98
2023-03-07T00:10:16.374Z,16.50
2023-03-07T00:12:44.651Z,18.63
2023-03-07T00:15:15.302Z,18.15
2023-03-07T00:17:43.912Z,18.33
2023-03-07T00:20:14.939Z,15.52
2023-03-07T00:22:43.828Z,17.33
2023-03-07T00:25:11.542Z,18.73
2023-03-07T00:27:39.501Z,17.15
2023-03-07T00:30:08.284Z,16.40
2023-03-07T00:32:36.367Z,15.70
2023-03-07T00:35:04.447Z,15.73
2023-03-07T00:37:32.297Z,14.80
2023-03-07T00:40:00.179Z,14.13
2023-03-07T00:42:29.255Z,15.07
2023-03-07T00:44:57.151Z,13.75
2023-03-07T00:47:25.150Z,13.90
2023-03-07T00:49:52.940Z,13.68
2023-03-07T00:52:21.126Z,12.77
2023-03-07T00:54:49.046Z,12.30
2023-03-07T00:57:17.694Z,12.98
2023-03-07T00:59:46.377Z,13.40
2023-03-07T01:02:14.122Z,11.63
2023-03-07T01:04:42.397Z,12.43
2023-03-07T01:07:10.268Z,12.57
2023-03-07T01:09:38.371Z,11.82
2023-03-07T01:12:07.657Z,10.77
2023-03-07T01:14:35.323Z,11.32
2023-03-07T01:17:04.102Z,10.30
2023-03-07T01:19:31.862Z,11.13
2023-03-07T01:21:59.646Z,11.95
2023-03-07T01:24:27.599Z,10.77
2023-03-07T01:26:55.511Z,11.10
2023-03-07T01:29:24.627Z,11.88
2023-03-07T01:31:52.757Z,11.65
2023-03-07T01:34:20.900Z,11.70
2023-03-07T01:36:51.576Z,10.32
2023-03-07T01:39:19.421Z,11.10
2023-03-07T01:41:55.186Z,10.85
2023-03-07T01:44:28.101Z,10.57
2023-03-07T01:47:00.855Z,9.82
2023-03-07T01:49:46.365Z,9.05
2023-03-07T01:52:30.329Z,8.60
2023-03-07T01:55:16.859Z,8.70
2023-03-07T01:57:49.220Z,8.00
2023-03-07T02:00:40.474Z,8.27
2023-03-07T02:03:15.918Z,8.02
2023-03-07T02:05:55.877Z,8.10
2023-03-07T02:08:29.014Z,8.35
2023-03-07T02:10:56.803Z,10.50
2023-03-07T02:13:27.918Z,10.27
2023-03-07T02:15:57.099Z,9.35
2023-03-07T02:18:27.675Z,8.60
2023-03-07T02:21:19.310Z,10.00
2023-03-07T02:23:50.587Z,10.50
2023-03-07T02:26:31.699Z,11.00
2023-03-07T02:29:01.525Z,10.75
2023-03-07T02:31:30.840Z,10.98
2023-03-07T02:33:58.711Z,12.02
2023-03-07T02:36:35.394Z,11.50
2023-03-07T02:39:21.794Z,11.25
2023-03-07T02:41:55.293Z,11.43
2023-03-07T02:44:31.183Z,12.20
2023-03-07T02:46:58.954Z,11.23
2023-03-07T02:49:29.395Z,11.43
2023-03-07T02:52:00.747Z,9.63
2023-03-07T02:54:33.067Z,9.10
2023-03-07T02:57:00.856Z,8.65
2023-03-07T02:59:28.788Z,8.38
2023-03-07T03:01:58.260Z,7.88
2023-03-07T03:04:26.304Z,8.00
2023-03-07T03:06:54.297Z,8.38
2023-03-07T03:09:22.092Z,8.48
2023-03-07T03:11:51.301Z,7.80
2023-03-07T03:14:23.029Z,7.80
2023-03-07T03:16:53.256Z,7.03
2023-03-07T03:19:22.173Z,7.13
2023-03-07T03:21:52.291Z,7.25
2023-03-07T03:24:20.262Z,7.63
2023-03-07T03:26:49.339Z,7.88
2023-03-07T03:29:18.955Z,6.80
2023-03-07T03:31:47.760Z,6.70
2023-03-07T03:34:15.737Z,8.15
2023-03-07T03:36:43.603Z,7.88
2023-03-07T03:39:11.799Z,8.95
2023-03-07T03:41:45.863Z,9.07
2023-03-07T03:44:14.491Z,10.23
2023-03-07T03:46:42.810Z,11.60
2023-03-07T03:49:13.674Z,11.77
2023-03-07T03:51:42.660Z,13.27
2023-03-07T03:54:10.694Z,11.38
2023-03-07T03:56:40.222Z,13.27
2023-03-07T03:59:08.995Z,11.23
2023-03-07T04:01:36.946Z,11.98
2023-03-07T04:04:05.552Z,10.85
2023-03-07T04:06:35.107Z,9.55
2023-03-07T04:09:05.218Z,8.93
2023-03-07T04:11:33.491Z,8.15
2023-03-07T04:14:02.789Z,8.10
2023-03-07T04:16:31.405Z,8.05
2023-03-07T04:19:00.204Z,7.50
2023-03-07T04:21:27.999Z,6.28
2023-03-07T04:23:58.702Z,7.13
2023-03-07T04:26:30.083Z,6.22
2023-03-07T04:28:58.658Z,6.30
2023-03-07T04:31:36.301Z,5.68
2023-03-07T04:34:05.788Z,5.90
2023-03-07T04:36:34.426Z,5.50
2023-03-07T04:39:02.333Z,5.97
2023-03-07T04:41:31.237Z,5.40
2023-03-07T04:44:28.317Z,5.60
2023-03-07T04:46:57.891Z,5.88
2023-03-07T04:49:27.229Z,5.68
2023-03-07T04:51:55.694Z,6.03
2023-03-07T04:54:23.751Z,5.30
2023-03-07T04:56:51.693Z,5.30
2023-03-07T04:59:21.403Z,5.38
2023-03-07T05:01:49.943Z,6.00
2023-03-07T05:04:17.889Z,5.38
2023-03-07T05:06:46.083Z,4.93
2023-03-07T05:09:14.766Z,5.18
2023-03-07T05:11:42.974Z,5.03
2023-03-07T05:14:10.802Z,4.95
2023-03-07T05:16:38.618Z,5.38
2023-03-07T05:19:07.809Z,5.65
2023-03-07T05:21:36.069Z,5.45
2023-03-07T05:24:04.936Z,5.40
2023-03-07T05:26:34.287Z,5.07
2023-03-07T05:29:02.315Z,4.82
2023-03-07T05:31:30.981Z,4.57
2023-03-07T05:33:59.528Z,4.47
2023-03-07T05:36:27.658Z,4.22
2023-03-07T05:38:57.299Z,4.65
2023-03-07T05:41:25.645Z,4.15
2023-03-07T05:43:55.544Z,5.00
2023-03-07T05:46:24.854Z,4.68
2023-03-07T05:48:52.905Z,4.28
2023-03-07T05:51:20.848Z,4.85
2023-03-07T05:53:49.422Z,5.35
2023-03-07T05:56:17.359Z,5.18
2023-03-07T05:58:45.283Z,6.05
2023-03-07T06:01:13.516Z,6.18
2023-03-07T06:03:43.090Z,7.38
2023-03-07T06:06:14.920Z,8.43
2023-03-07T06:08:42.922Z,8.18
2023-03-07T06:11:11.368Z,7.82
2023-03-07T06:13:40.327Z,8.13
2023-03-07T06:16:08.362Z,8.02
2023-03-07T06:18:39.043Z,7.35
2023-03-07T06:21:08.539Z,6.60
2023-03-07T06:23:41.513Z,9.10
2023-03-07T06:26:13.580Z,9.25
2023-03-07T06:28:43.632Z,10.73
2023-03-07T06:31:19.532Z,11.55
2023-03-07T06:36:21.947Z,8.88
2023-03-07T06:38:56.499Z,8.70
2023-03-07T06:41:25.216Z,7.30
2023-03-07T06:43:55.168Z,7.10
2023-03-07T06:46:28.232Z,8.52
2023-03-07T06:48:56.764Z,9.85
2023-03-07T06:51:25.426Z,11.20
2023-03-07T06:53:56.399Z,11.48
2023-03-07T06:56:29.938Z,11.10
2023-03-07T06:58:58.533Z,10.75
2023-03-07T07:01:26.848Z,11.32
2023-03-07T07:03:57.483Z,12.32
2023-03-07T07:06:28.868Z,12.55
2023-03-07T07:08:58.503Z,13.50
2023-03-07T07:11:30.287Z,13.40
2023-03-07T07:13:58.527Z,11.45
2023-03-07T07:16:26.582Z,12.18
2023-03-07T07:18:54.742Z,13.05
2023-03-07T07:21:24.208Z,12.13
2023-03-07T07:23:52.333Z,11.38
2023-03-07T07:26:20.969Z,9.88
2023-03-07T07:28:48.990Z,8.77
2023-03-07T07:31:16.811Z,9.38
2023-03-07T07:33:46.541Z,9.60
2023-03-07T07:36:16.455Z,10.38
2023-03-07T07:38:45.040Z,11.88
2023-03-07T07:41:13.530Z,11.75
2023-03-07T07:43:42.132Z,12.27
2023-03-07T07:46:17.562Z,12.68
2023-03-07T07:48:48.190Z,13.00
2023-03-07T07:51:17.013Z,12.55
2023-03-07T07:53:45.158Z,13.43
2023-03-07T07:56:13.433Z,14.23
2023-03-07T07:58:41.361Z,13.32
2023-03-07T08:01:16.682Z,14.30
2023-03-07T08:03:45.053Z,14.73
2023-03-07T08:06:13.818Z,14.65
2023-03-07T08:08:42.621Z,15.95
2023-03-07T08:11:10.379Z,15.25
2023-03-07T08:13:39.892Z,14.85
2023-03-07T08:16:10.944Z,14.50
2023-03-07T08:18:38.758Z,14.80
2023-03-07T08:21:07.226Z,13.80
2023-03-07T08:23:36.080Z,15.20
2023-03-07T08:26:06.573Z,14.00
2023-03-07T08:28:34.990Z,13.63
2023-03-07T08:31:11.712Z,14.25
2023-03-07T08:33:40.156Z,13.32
2023-03-07T08:36:08.690Z,12.88
2023-03-07T08:38:36.749Z,12.15
2023-03-07T08:41:06.780Z,12.77
2023-03-07T08:43:36.727Z,14.93
2023-03-07T08:46:04.726Z,14.93
2023-03-07T08:48:32.796Z,14.98
2023-03-07T08:51:13.045Z,16.02
2023-03-07T08:53:43.159Z,18.02
2023-03-07T08:56:13.568Z,20.85
2023-03-07T08:58:41.879Z,20.70
2023-03-07T09:01:10.471Z,23.05
2023-03-07T09:03:38.238Z,22.85
2023-03-07T09:06:06.539Z,21.70
2023-03-07T09:08:34.458Z,20.60
2023-03-07T09:11:05.559Z,20.02
2023-03-07T09:13:43.055Z,19.63
2023-03-07T09:16:17.834Z,20.23
2023-03-07T09:18:45.544Z,18.27
2023-03-07T09:21:13.310Z,19.20
2023-03-07T09:23:43.371Z,20.15
2023-03-07T09:26:11.395Z,19.02
2023-03-07T09:28:39.136Z,20.20
2023-03-07T09:31:09.254Z,18.92
2023-03-07T09:33:37.633Z,19.50
2023-03-07T09:36:08.963Z,21.00
2023-03-07T09:38:37.216Z,19.60
2023-03-07T09:41:15.423Z,18.65
2023-03-07T09:43:57.894Z,19.10
2023-03-07T09:47:10.649Z,17.63
2023-03-07T09:49:52.502Z,20.08
2023-03-07T09:52:27.630Z,19.58
2023-03-07T09:55:02.057Z,19.92
2023-03-07T09:57:39.082Z,18.08
2023-03-07T10:00:19.211Z,14.15
2023-03-07T10:03:13.590Z,12.00
2023-03-07T10:05:50.375Z,10.25
2023-03-07T10:08:33.104Z,9.82
2023-03-07T10:11:29.274Z,10.15
2023-03-07T10:14:08.570Z,8.75
2023-03-07T10:16:51.636Z,8.48
2023-03-07T10:19:35.021Z,8.10
2023-03-07T10:22:13.627Z,8.40
2023-03-07T10:25:00.560Z,8.52
2023-03-07T10:27:30.955Z,8.18
2023-03-07T10:30:01.103Z,9.30
2023-03-07T10:32:40.178Z,8.85
2023-03-07T10:35:11.385Z,9.00
2023-03-07T10:37:56.944Z,9.45
2023-03-07T10:40:46.931Z,9.02
2023-03-07T10:43:32.190Z,7.78
2023-03-07T10:46:27.475Z,9.07
2023-03-07T10:48:58.269Z,9.65
2023-03-07T10:51:41.548Z,9.65
2023-03-07T10:54:16.397Z,9.32
2023-03-07T10:57:09.109Z,8.70
2023-03-07T10:59:39.323Z,8.73
2023-03-07T11:02:42.285Z,9.73
2023-03-07T11:05:32.040Z,9.55
2023-03-07T11:08:00.752Z,9.02
2023-03-07T11:10:41.070Z,9.10
2023-03-07T11:13:17.990Z,10.68
2023-03-07T11:15:46.243Z,11.43
2023-03-07T11:18:42.292Z,10.77
2023-03-07T11:21:31.323Z,10.88
2023-03-07T11:24:26.791Z,11.00
2023-03-07T11:26:59.360Z,11.20
2023-03-07T11:29:28.696Z,10.80
2023-03-07T11:32:21.527Z,10.65
2023-03-07T11:34:52.333Z,11.85
2023-03-07T11:37:42.855Z,12.68
2023-03-07T11:40:27.207Z,13.27
2023-03-07T11:43:42.880Z,12.82
2023-03-07T11:46:40.022Z,12.85
2023-03-07T11:49:27.426Z,12.98
2023-03-07T11:52:01.268Z,12.70
2023-03-07T11:55:16.782Z,13.50
2023-03-07T11:58:04.488Z,13.45
2023-03-07T12:03:37.130Z,14.57
2023-03-07T12:06:27.157Z,14.77
2023-03-07T12:09:03.882Z,15.68
2023-03-07T12:11:43.904Z,16.10
2023-03-07T12:14:27.593Z,15.63
2023-03-07T12:16:55.434Z,17.40
2023-03-07T12:19:26.399Z,14.88
2023-03-07T12:22:26.004Z,15.57
2023-03-07T12:25:38.494Z,14.90
2023-03-07T12:28:23.194Z,14.55
2023-03-07T12:30:56.996Z,15.75
2023-03-07T12:33:43.025Z,20.52
2023-03-07T12:36:21.809Z,25.08
2023-03-07T12:38:57.030Z,23.70
2023-03-07T12:41:47.913Z,21.75
2023-03-07T12:44:30.017Z,18.58
2023-03-07T12:47:08.703Z,18.30
2023-03-07T12:49:54.008Z,18.05
2023-03-07T12:52:32.658Z,19.52
2023-03-07T12:55:33.927Z,19.13
2023-03-07T12:58:32.153Z,19.45
2023-03-07T13:01:05.321Z,18.55
2023-03-07T13:03:58.047Z,19.27
2023-03-07T13:06:26.917Z,16.60
2023-03-07T13:08:59.196Z,12.00
2023-03-07T13:11:30.711Z,16.45
2023-03-07T13:14:03.479Z,16.42
2023-03-07T13:16:34.747Z,16.23
2023-03-07T13:19:35.551Z,16.65
2023-03-07T13:22:24.328Z,16.15
2023-03-07T13:24:57.006Z,16.92
2023-03-07T13:27:31.233Z,16.23
2023-03-07T13:30:08.427Z,14.98
2023-03-07T13:35:31.055Z,14.13
2023-03-07T13:38:11.389Z,13.05
2023-03-07T13:40:54.596Z,13.60
2023-03-07T13:43:27.814Z,13.02
2023-03-07T13:46:18.805Z,12.48
2023-03-07T13:48:49.727Z,11.20
2023-03-07T13:51:17.551Z,11.10
2023-03-07T13:53:50.623Z,11.35
2023-03-07T13:56:25.299Z,9.23
2023-03-07T13:59:20.789Z,9.07
2023-03-07T14:02:14.886Z,9.00
2023-03-07T14:04:54.600Z,8.40
2023-03-07T14:07:29.230Z,8.18
2023-03-07T14:10:22.328Z,7.82
2023-03-07T14:13:14.184Z,8.20
2023-03-07T14:16:00.965Z,8.13
2023-03-07T14:18:44.871Z,8.65
2023-03-07T14:21:21.756Z,8.07
2023-03-07T14:24:07.710Z,8.60
2023-03-07T14:26:40.779Z,8.07
2023-03-07T14:29:22.707Z,8.43
2023-03-07T14:31:53.958Z,6.82
2023-03-07T14:34:21.896Z,6.60
2023-03-07T14:36:56.604Z,5.43
2023-03-07T14:39:29.769Z,4.90
2023-03-07T14:42:23.324Z,4.53
2023-03-07T14:45:03.152Z,4.30
2023-03-07T14:48:28.337Z,4.85
2023-03-07T14:51:02.375Z,4.93
2023-03-07T14:53:32.464Z,5.22
2023-03-07T14:56:01.232Z,5.88
2023-03-07T14:58:32.674Z,5.05
2023-03-07T15:01:18.675Z,5.72
2023-03-07T15:03:58.034Z,4.60
2023-03-07T15:06:29.172Z,4.22
2023-03-07T15:08:59.349Z,4.60
2023-03-07T15:11:33.008Z,6.60
2023-03-07T15:14:25.461Z,9.23
2023-03-07T15:16:56.932Z,16.60
2023-03-07T15:19:42.392Z,18.67
2023-03-07T15:22:33.829Z,22.77
2023-03-07T15:25:01.703Z,49.45
2023-03-07T15:27:31.678Z,51.78
2023-03-07T15:30:02.383Z,51.97
2023-03-07T15:32:39.174Z,42.60
2023-03-07T15:35:11.067Z,26.98
2023-03-07T15:38:01.689Z,18.25
2023-03-07T15:40:34.876Z,14.10
2023-03-07T15:43:05.811Z,15.40
2023-03-07T15:45:41.897Z,15.27
2023-03-07T15:48:32.168Z,9.85
2023-03-07T15:51:02.507Z,8.75
2023-03-07T15:53:41.831Z,7.63
2023-03-07T15:56:36.595Z,6.93
2023-03-07T15:59:26.692Z,6.88
2023-03-07T16:01:54.706Z,7.93
2023-03-07T16:04:43.182Z,8.30
2023-03-07T16:07:18.276Z,6.50
2023-03-07T16:09:46.109Z,4.80
2023-03-07T16:12:20.959Z,4.38
2023-03-07T16:14:51.889Z,3.45
2023-03-07T16:17:25.791Z,3.35
2023-03-07T16:19:54.161Z,4.45
2023-03-07T16:22:22.560Z,4.30
2023-03-07T16:24:50.363Z,3.97
2023-03-07T16:27:21.472Z,3.90
2023-03-07T16:29:50.458Z,3.67
2023-03-07T16:32:22.068Z,3.70
2023-03-07T16:34:50.568Z,4.10
2023-03-07T16:37:18.506Z,3.95
2023-03-07T16:39:46.375Z,3.55
2023-03-07T16:42:23.126Z,3.15
2023-03-07T16:44:52.824Z,3.45
2023-03-07T16:47:20.744Z,3.05
2023-03-07T16:49:49.115Z,3.50
2023-03-07T16:52:17.521Z,3.15
2023-03-07T16:54:45.810Z,3.42
2023-03-07T16:57:16.171Z,3.45
2023-03-07T16:59:46.675Z,3.30
2023-03-07T17:02:20.266Z,3.50
2023-03-07T17:04:48.503Z,3.22
2023-03-07T17:07:19.913Z,3.00
2023-03-07T17:09:47.907Z,3.00
2023-03-07T17:12:16.784Z,3.10
2023-03-07T17:14:45.188Z,3.15
2023-03-07T17:17:29.146Z,3.05
2023-03-07T17:19:57.047Z,3.03
2023-03-07T17:22:24.900Z,2.92
2023-03-07T17:24:52.632Z,3.97
2023-03-07T17:27:20.781Z,3.47
2023-03-07T17:29:52.542Z,3.22
2023-03-07T17:32:20.815Z,3.00
2023-03-07T17:34:48.722Z,3.08
2023-03-07T17:37:16.636Z,3.10
2023-03-07T17:39:45.828Z,2.95
2023-03-07T17:42:13.591Z,3.35
2023-03-07T17:44:41.894Z,2.95
2023-03-07T17:47:10.872Z,2.92
2023-03-07T17:49:39.463Z,2.58
2023-03-07T17:52:08.297Z,3.63
2023-03-07T17:54:38.425Z,4.20
2023-03-07T17:57:08.022Z,4.80
2023-03-07T17:59:36.017Z,4.18
2023-03-07T18:02:05.912Z,3.72
2023-03-07T18:04:34.131Z,4.05
2023-03-07T18:07:03.101Z,4.50
2023-03-07T18:09:31.890Z,5.18
2023-03-07T18:12:01.113Z,5.55
2023-03-07T18:14:30.239Z,4.85
2023-03-07T18:16:58.045Z,4.35
2023-03-07T18:19:27.227Z,3.67
2023-03-07T18:21:55.750Z,3.95
2023-03-07T18:24:30.203Z,3.50
2023-03-07T18:27:05.191Z,4.30
2023-03-07T18:29:33.110Z,3.95
2023-03-07T18:32:01.344Z,3.95
2023-03-07T18:34:29.061Z,4.25
2023-03-07T18:36:57.267Z,3.90
2023-03-07T18:39:25.038Z,3.63
2023-03-07T18:41:53.145Z,3.97
2023-03-07T18:44:23.538Z,5.18
2023-03-07T18:46:52.356Z,7.47
2023-03-07T18:49:20.194Z,7.93
2023-03-07T18:51:48.585Z,7.57
2023-03-07T18:54:17.069Z,7.60
2023-03-07T18:56:48.402Z,5.80
2023-03-07T18:59:17.580Z,4.90
2023-03-07T19:01:45.756Z,4.30
2023-03-07T19:04:13.784Z,4.47
2023-03-07T19:06:45.504Z,4.38
2023-03-07T19:09:18.975Z,5.47
2023-03-07T19:11:48.100Z,6.35
2023-03-07T19:14:17.735Z,5.88
2023-03-07T19:16:45.553Z,5.20
2023-03-07T19:19:13.372Z,4.78
2023-03-07T19:21:42.348Z,5.25
2023-03-07T19:24:12.127Z,4.68
2023-03-07T19:26:50.063Z,4.30
2023-03-07T19:29:25.997Z,3.65
2023-03-07T19:31:54.777Z,3.70
2023-03-07T19:34:23.827Z,3.20
2023-03-07T19:36:51.556Z,3.83
2023-03-07T19:39:20.821Z,4.38
2023-03-07T19:41:48.636Z,4.85
2023-03-07T19:44:17.266Z,8.68
2023-03-07T19:46:47.912Z,12.63
2023-03-07T19:49:16.796Z,17.60
2023-03-07T19:51:44.748Z,16.73
2023-03-07T19:54:14.397Z,15.60
2023-03-07T19:56:45.210Z,12.02
2023-03-07T19:59:13.562Z,10.77
2023-03-07T20:01:41.473Z,10.07
2023-03-07T20:04:11.994Z,9.32
2023-03-07T20:06:42.415Z,8.18
2023-03-07T20:09:13.320Z,7.53
2023-03-07T20:11:45.947Z,9.80
2023-03-07T20:14:14.043Z,9.10
2023-03-07T20:16:43.088Z,8.57
2023-03-07T20:19:11.077Z,9.25
2023-03-07T20:21:40.604Z,9.25
2023-03-07T20:24:08.817Z,8.52
2023-03-07T20:26:39.524Z,8.20
2023-03-07T20:29:09.605Z,9.43
2023-03-07T20:31:39.586Z,9.38
2023-03-07T20:34:08.228Z,10.07
2023-03-07T20:36:37.735Z,11.00
2023-03-07T20:39:08.382Z,11.98
2023-03-07T20:41:36.692Z,11.85
2023-03-07T20:44:10.508Z,11.10
2023-03-07T20:46:39.285Z,10.63
2023-03-07T20:49:08.865Z,10.77
2023-03-07T20:51:37.109Z,9.00
2023-03-07T20:54:14.601Z,8.70
2023-03-07T20:56:42.886Z,8.73
2023-03-07T20:59:14.145Z,9.82
2023-03-07T21:01:43.511Z,10.40
2023-03-07T21:04:13.699Z,9.30
2023-03-07T21:06:44.680Z,9.95
2023-03-07T21:09:14.605Z,10.38
2023-03-07T21:11:47.807Z,9.30
2023-03-07T21:14:17.309Z,9.98
2023-03-07T21:16:45.388Z,9.85
2023-03-07T21:19:13.741Z,10.32
2023-03-07T21:21:42.586Z,11.73
2023-03-07T21:24:15.790Z,11.80
2023-03-07T21:26:44.197Z,14.98
2023-03-07T21:29:13.997Z,13.70
2023-03-07T21:31:43.892Z,12.95
2023-03-07T21:34:14.087Z,12.70
2023-03-07T21:36:42.161Z,13.02
2023-03-07T21:39:11.745Z,11.73
2023-03-07T21:41:39.608Z,12.43
2023-03-07T21:44:07.667Z,12.98
2023-03-07T21:46:37.562Z,12.65
2023-03-07T21:49:06.581Z,13.57
2023-03-07T21:51:34.581Z,12.98
2023-03-07T21:54:02.332Z,13.13
2023-03-07T21:56:30.397Z,12.63
2023-03-07T21:58:58.321Z,12.48
2023-03-07T22:01:28.932Z,11.15
2023-03-07T22:03:59.304Z,11.15
2023-03-07T22:06:28.645Z,11.05
2023-03-07T22:08:56.632Z,12.13
2023-03-07T22:11:24.336Z,12.40
2023-03-07T22:13:52.206Z,15.00
2023-03-07T22:16:21.710Z,16.45
2023-03-07T22:18:54.446Z,17.40
2023-03-07T22:21:26.190Z,16.60
2023-03-07T22:24:00.788Z,16.48
2023-03-07T22:26:31.075Z,14.65
2023-03-07T22:28:59.720Z,12.88
2023-03-07T22:31:29.559Z,12.60
2023-03-07T22:33:58.934Z,12.15
2023-03-07T22:36:26.686Z,12.32
2023-03-07T22:38:56.460Z,10.50
2023-03-07T22:41:25.754Z,10.75
2023-03-07T22:43:53.723Z,10.88
2023-03-07T22:46:22.391Z,10.90
2023-03-07T22:48:57.207Z,9.65
2023-03-07T22:51:25.625Z,10.30
2023-03-07T22:53:55.552Z,9.63
2023-03-07T22:56:27.637Z,9.07
2023-03-07T22:58:55.627Z,9.48
2023-03-07T23:01:26.163Z,10.02
2023-03-07T23:03:55.355Z,10.43
2023-03-07T23:06:26.025Z,9.90
2023-03-07T23:08:54.602Z,9.75
2023-03-07T23:11:24.593Z,9.65
2023-03-07T23:13:53.670Z,9.60
2023-03-07T23:16:29.956Z,9.80
2023-03-07T23:18:59.064Z,9.82
2023-03-07T23:21:30.241Z,10.77
2023-03-07T23:23:58.544Z,9.93
2023-03-07T23:26:29.588Z,9.00
2023-03-07T23:28:58.011Z,8.63
2023-03-07T23:31:29.720Z,8.63
2023-03-07T23:33:59.861Z,9.02
2023-03-07T23:36:29.786Z,8.50
2023-03-07T23:38:58.934Z,8.35
2023-03-07T23:41:27.898Z,8.30
2023-03-07T23:43:58.395Z,8.63
2023-03-07T23:46:28.647Z,8.35
2023-03-07T23:48:57.315Z,8.32
2023-03-07T23:51:25.839Z,8.52
2023-03-07T23:53:53.844Z,9.45
2023-03-07T23:56:21.706Z,8.57
2023-03-07T23:58:53.578Z,8.85
